Time;durP1;ratioP1;P1;durP2;ratioP2;P2;SDS_P1;SDS_P2;PMS_P1;PMS_P2;Temp;Humidity;BMP_temperature;BMP_pressure;BME280_temperature;BME280_humidity;BME280_pressure;Samples;Min_cycle;Max_cycle;Signal;HPM_P1;HPM_P2
2022/06/10 00:00:59;;;;;;;15.25;4.88;;;;;;;13.77;75.18;101955.97;5031623;28;20036;-73
2022/06/10 00:03:25;;;;;;;12.27;4.95;;;;;;;13.59;75.60;101944.53;5010852;28;20025;-73
2022/06/10 00:06:01;;;;;;;18.10;4.85;;;;;;;13.63;75.57;101956.75;5031365;28;20021;-73
2022/06/10 00:08:29;;;;;;;14.85;5.18;;;;;;;13.59;76.24;101950.72;5014070;28;20449;-73
2022/06/10 00:10:58;;;;;;;13.02;5.00;;;;;;;13.58;76.22;101956.16;4995669;28;20025;-73
2022/06/10 00:13:28;;;;;;;14.55;5.03;;;;;;;13.53;76.83;101958.22;5013238;28;20117;-73
2022/06/10 00:15:54;;;;;;;11.50;4.80;;;;;;;13.60;76.64;101951.59;5013234;28;20433;-73
2022/06/10 00:18:25;;;;;;;10.95;4.22;;;;;;;13.60;76.33;101951.59;5013780;28;20038;-73
2022/06/10 00:20:51;;;;;;;23.08;5.97;;;;;;;13.56;76.28;101950.91;5005734;28;20042;-74
2022/06/10 00:23:17;;;;;;;12.30;5.03;;;;;;;13.62;76.32;101955.03;5012069;28;20030;-73
2022/06/10 00:25:42;;;;;;;16.65;5.05;;;;;;;13.65;75.71;101952.19;5011887;28;20034;-73
2022/06/10 00:28:12;;;;;;;16.08;4.95;;;;;;;13.65;76.09;101952.19;5007684;28;20041;-73
2022/06/10 00:30:40;;;;;;;15.13;5.22;;;;;;;13.59;76.76;101949.88;5010755;28;20381;-74
2022/06/10 00:33:06;;;;;;;18.50;5.45;;;;;;;13.70;76.33;101954.56;5012091;28;20025;-73
2022/06/10 00:35:33;;;;;;;12.82;4.50;;;;;;;13.62;76.09;101957.72;5010408;28;20448;-73
2022/06/10 00:38:00;;;;;;;13.02;4.45;;;;;;;13.66;76.65;101955.72;5010523;28;20025;-73
2022/06/10 00:40:29;;;;;;;12.15;4.60;;;;;;;13.70;75.88;101947.41;5010111;28;20041;-73
2022/06/10 00:42:56;;;;;;;14.60;4.90;;;;;;;13.68;76.26;101951.13;5010961;28;20022;-74
2022/06/10 00:45:50;;;;;;;19.13;4.70;;;;;;;13.74;76.08;101948.97;5008974;28;20045;-73
2022/06/10 00:48:22;;;;;;;13.48;4.80;;;;;;;13.72;75.59;101950.00;5009699;28;20026;-73
2022/06/10 00:50:48;;;;;;;17.92;4.93;;;;;;;13.75;75.86;101945.34;5010499;28;20034;-73
2022/06/10 00:53:19;;;;;;;13.85;4.57;;;;;;;13.76;75.32;101943.53;5010669;28;20079;-73
2022/06/10 00:55:46;;;;;;;14.52;4.57;;;;;;;13.84;75.93;101939.44;5008545;28;20017;-73
2022/06/10 00:58:20;;;;;;;11.43;4.43;;;;;;;13.77;76.67;101922.06;5009385;28;20032;-73
2022/06/10 01:00:49;;;;;;;14.35;4.40;;;;;;;13.88;75.50;101936.59;5009091;28;20029;-73
2022/06/10 01:03:17;;;;;;;12.80;4.93;;;;;;;13.94;74.93;101942.47;5010575;28;20087;-73
2022/06/10 01:05:43;;;;;;;14.20;4.18;;;;;;;13.95;75.18;101940.63;5009705;28;20030;-73
2022/06/10 01:08:15;;;;;;;11.60;4.10;;;;;;;13.88;74.61;101929.41;5011117;28;20041;-73
2022/06/10 01:11:07;;;;;;;20.70;4.55;;;;;;;14.02;75.00;101942.84;5008436;28;20022;-73
2022/06/10 01:13:45;;;;;;;18.08;4.18;;;;;;;14.00;74.48;101946.53;5006469;28;20406;-73
2022/06/10 01:16:32;;;;;;;18.90;5.53;;;;;;;14.05;74.30;101955.16;5005409;28;20053;-73
2022/06/10 01:19:31;;;;;;;14.23;4.50;;;;;;;13.96;74.27;101948.56;5008203;28;20049;-73
2022/06/10 01:22:20;;;;;;;14.00;4.20;;;;;;;14.00;75.75;101941.19;5010993;28;20045;-73
2022/06/10 01:25:18;;;;;;;18.48;4.60;;;;;;;14.06;74.79;101944.38;5008284;28;20870;-73
2022/06/10 01:28:20;;;;;;;10.87;3.93;;;;;;;14.00;74.58;101942.09;5008175;28;20030;-73
2022/06/10 01:31:07;;;;;;;12.38;4.03;;;;;;;14.04;74.31;101946.28;5008185;28;20720;-73
2022/06/10 01:34:01;;;;;;;18.48;4.30;;;;;;;14.05;74.68;101948.00;5009491;28;20050;-73
2022/06/10 01:37:03;;;;;;;15.73;4.22;;;;;;;14.11;73.88;101952.13;5010809;28;20045;-73
2022/06/10 01:39:48;;;;;;;8.05;3.55;;;;;;;14.08;73.79;101950.47;5008616;28;20161;-73
2022/06/10 01:42:35;;;;;;;13.75;4.07;;;;;;;14.12;73.72;101947.63;5009273;28;20026;-73
2022/06/10 01:45:18;;;;;;;13.57;3.72;;;;;;;14.14;74.30;101943.91;5010332;28;20102;-73
2022/06/10 01:47:52;;;;;;;9.55;3.65;;;;;;;14.08;73.96;101947.81;5010924;28;20030;-73
2022/06/10 01:50:24;;;;;;;14.85;3.63;;;;;;;14.15;73.93;101950.09;5010092;28;20473;-73
2022/06/10 01:53:15;;;;;;;10.63;3.95;;;;;;;14.15;73.94;101940.28;5010120;28;20502;-73
2022/06/10 01:55:47;;;;;;;17.05;3.92;;;;;;;14.15;75.15;101948.31;5008491;28;20096;-73
2022/06/10 01:58:20;;;;;;;10.63;3.88;;;;;;;14.14;74.89;101949.25;5010103;28;20034;-73
2022/06/10 02:00:51;;;;;;;12.60;3.90;;;;;;;14.22;74.44;101946.97;5003263;28;20026;-73
2022/06/10 02:03:28;;;;;;;13.82;4.43;;;;;;;14.21;74.11;101937.25;5010214;28;20030;-73
2022/06/10 02:06:02;;;;;;;18.42;3.80;;;;;;;14.19;73.97;101941.81;5005059;28;20029;-73
2022/06/10 02:08:33;;;;;;;10.07;3.80;;;;;;;14.21;73.84;101941.75;5008345;28;20056;-73
2022/06/10 02:11:06;;;;;;;13.00;3.72;;;;;;;14.18;73.81;101945.47;5009792;28;20029;-73
2022/06/10 02:13:44;;;;;;;10.77;3.97;;;;;;;14.21;73.74;101960.47;5008973;28;20084;-73
2022/06/10 02:16:15;;;;;;;11.57;3.47;;;;;;;14.16;74.00;101943.81;5009357;28;20057;-73
2022/06/10 02:18:47;;;;;;;12.68;3.75;;;;;;;14.19;73.76;101952.53;5008158;28;20781;-73
2022/06/10 02:21:27;;;;;;;17.80;4.28;;;;;;;14.20;73.87;101945.34;5023934;28;20046;-73
2022/06/10 02:24:03;;;;;;;14.85;4.25;;;;;;;14.17;74.08;101950.88;5011213;28;20112;-73
2022/06/10 02:26:34;;;;;;;13.95;3.88;;;;;;;14.20;74.19;101953.38;5028318;28;20031;-73
2022/06/10 02:29:09;;;;;;;11.52;3.47;;;;;;;14.19;74.16;101949.84;5009948;28;20013;-73
2022/06/10 02:31:40;;;;;;;10.68;4.15;;;;;;;14.15;75.24;101955.47;5026197;28;20450;-73
2022/06/10 02:34:07;;;;;;;10.57;3.70;;;;;;;14.22;75.21;101964.84;5010932;28;20048;-73
2022/06/10 02:36:54;;;;;;;14.23;4.07;;;;;;;14.25;75.11;101959.31;5030158;28;20060;-73
2022/06/10 02:39:30;;;;;;;8.25;3.10;;;;;;;14.25;74.25;101959.31;5032079;28;20029;-73
2022/06/10 02:42:33;;;;;;;9.93;3.53;;;;;;;14.25;74.30;101962.84;5030422;28;20025;-73
2022/06/10 02:45:25;;;;;;;11.70;3.80;;;;;;;14.22;74.32;101971.06;5030955;28;20025;-73
2022/06/10 02:48:32;;;;;;;12.15;4.15;;;;;;;14.25;74.64;101976.22;5030958;28;20041;-73
2022/06/10 02:50:57;;;;;;;17.23;4.78;;;;;;;14.30;74.64;101970.63;5011920;28;20041;-73
2022/06/10 02:53:25;;;;;;;16.20;3.85;;;;;;;14.28;74.89;101967.16;5032318;28;20572;-73
2022/06/10 02:55:50;;;;;;;8.80;3.40;;;;;;;14.23;75.83;101966.56;4981358;28;20104;-73
2022/06/10 03:01:31;;;;;;;7.47;3.33;;;;;;;14.26;74.68;101961.03;5017983;28;20045;-73
2022/06/10 03:04:08;;;;;;;12.43;3.50;;;;;;;14.25;75.31;101957.50;5014678;28;20037;-73
2022/06/10 03:07:04;;;;;;;18.90;4.00;;;;;;;14.30;74.93;101970.63;5031524;28;20032;-73
2022/06/10 03:09:42;;;;;;;10.80;3.20;;;;;;;14.30;74.92;101970.63;5030211;28;20025;-73
2022/06/10 03:12:33;;;;;;;12.93;3.85;;;;;;;14.31;74.65;101969.66;5030079;28;20075;-73
2022/06/10 03:15:27;;;;;;;12.95;4.15;;;;;;;14.29;75.26;101979.56;5029479;28;20052;-73
2022/06/10 03:17:53;;;;;;;12.00;3.35;;;;;;;14.28;75.24;101975.19;5031693;28;20021;-73
2022/06/10 03:20:43;;;;;;;11.30;3.35;;;;;;;14.32;75.25;101974.03;5031873;28;20056;-73
2022/06/10 03:23:17;;;;;;;15.65;3.95;;;;;;;14.30;75.21;101984.84;5013988;28;20484;-73
2022/06/10 03:26:14;;;;;;;11.07;3.72;;;;;;;14.36;74.79;101985.44;5032816;28;20029;-73
2022/06/10 03:28:50;;;;;;;12.38;3.63;;;;;;;14.35;75.18;101991.72;4977962;28;20037;-73
2022/06/10 03:31:30;;;;;;;12.48;3.80;;;;;;;14.35;75.36;101983.69;5028449;28;20036;-73
2022/06/10 03:34:35;;;;;;;11.20;3.28;;;;;;;14.39;74.91;101991.47;5031703;28;20049;-73
2022/06/10 03:37:03;;;;;;;12.35;3.78;;;;;;;14.36;75.42;101988.13;5007562;28;20037;-73
2022/06/10 03:39:29;;;;;;;13.05;3.38;;;;;;;14.40;75.17;101995.00;5031970;28;20534;-73
2022/06/10 03:41:59;;;;;;;9.45;3.38;;;;;;;14.37;75.68;101984.47;5031560;28;20029;-73
2022/06/10 03:44:27;;;;;;;12.30;4.20;;;;;;;14.31;76.33;101975.84;5032217;28;20389;-74
2022/06/10 03:46:54;;;;;;;9.55;3.42;;;;;;;14.34;75.65;101976.63;5029301;28;20029;-73
2022/06/10 03:49:27;;;;;;;13.75;3.30;;;;;;;14.30;75.20;101978.66;5031418;28;20069;-73
2022/06/10 03:51:53;;;;;;;8.57;3.40;;;;;;;14.32;75.91;101977.59;5030898;28;20040;-73
2022/06/10 03:54:19;;;;;;;17.27;3.47;;;;;;;14.29;75.97;101977.78;5031383;28;20029;-73
2022/06/10 03:56:51;;;;;;;13.07;3.30;;;;;;;14.35;75.63;101987.22;5031429;28;20550;-73
2022/06/10 03:59:17;;;;;;;10.45;3.90;;;;;;;14.36;76.06;101990.78;5027870;28;20079;-73
2022/06/10 04:01:42;;;;;;;9.52;3.58;;;;;;;14.40;75.85;101995.84;4996758;28;20033;-73
2022/06/10 04:04:07;;;;;;;15.52;4.00;;;;;;;14.39;76.17;101998.63;5010879;28;20421;-73
2022/06/10 04:06:36;;;;;;;9.45;3.63;;;;;;;14.31;76.59;101983.03;5012569;28;20128;-73
2022/06/10 04:09:01;;;;;;;14.85;3.58;;;;;;;14.28;76.65;101986.75;5029336;28;20060;-73
2022/06/10 04:11:27;;;;;;;7.32;3.00;;;;;;;14.25;76.59;101970.88;5014378;28;20066;-73
2022/06/10 04:13:53;;;;;;;11.13;3.28;;;;;;;14.39;76.78;101995.97;5013779;28;20112;-73
2022/06/10 04:16:19;;;;;;;9.48;3.45;;;;;;;14.42;77.13;102001.97;5031712;28;20025;-73
2022/06/10 04:18:45;;;;;;;10.73;3.45;;;;;;;14.43;77.27;102006.38;5029324;28;20447;-73
2022/06/10 04:21:10;;;;;;;11.55;3.08;;;;;;;14.43;77.37;101990.31;4997040;28;20132;-73
2022/06/10 04:23:36;;;;;;;9.30;3.10;;;;;;;14.49;77.36;102005.13;5031316;28;20038;-73
2022/06/10 04:26:02;;;;;;;8.57;3.15;;;;;;;14.53;78.22;102017.44;5009177;28;20034;-73
2022/06/10 04:28:28;;;;;;;7.05;3.08;;;;;;;14.55;78.00;102007.47;5030992;28;20059;-73
2022/06/10 04:30:56;;;;;;;8.40;2.92;;;;;;;14.53;78.32;102004.03;5011857;28;20029;-74
2022/06/10 04:33:22;;;;;;;10.85;3.13;;;;;;;14.51;78.10;102004.13;5014087;28;20029;-73
2022/06/10 04:35:49;;;;;;;9.63;3.60;;;;;;;14.53;78.31;102004.03;5030927;28;20091;-73
2022/06/10 04:38:18;;;;;;;9.30;3.00;;;;;;;14.57;78.41;102005.56;5031907;28;20021;-73
2022/06/10 04:40:44;;;;;;;7.82;2.92;;;;;;;14.55;78.97;102004.78;5032481;28;20040;-74
2022/06/10 04:43:14;;;;;;;9.77;2.97;;;;;;;14.54;79.90;102003.94;5030789;28;20079;-73
2022/06/10 04:45:47;;;;;;;18.08;3.17;;;;;;;14.52;78.69;102011.19;5012554;28;20025;-73
2022/06/10 04:48:14;;;;;;;12.50;2.78;;;;;;;14.48;78.47;102008.78;5030400;28;20087;-74
2022/06/10 04:50:41;;;;;;;12.85;3.72;;;;;;;14.49;79.27;102016.69;5012390;28;20457;-73
2022/06/10 04:53:06;;;;;;;10.60;3.50;;;;;;;14.49;79.16;102013.16;5025140;28;20029;-73
2022/06/10 04:55:34;;;;;;;13.45;3.78;;;;;;;14.43;78.62;102000.16;5029826;28;20393;-73
2022/06/10 04:58:00;;;;;;;16.17;3.78;;;;;;;14.52;78.80;102008.50;5030705;28;20108;-73
2022/06/10 05:00:37;;;;;;;11.32;3.38;;;;;;;14.51;78.51;102004.13;4992696;28;20155;-73
2022/06/10 05:03:04;;;;;;;11.68;3.67;;;;;;;14.50;78.38;101999.72;5029447;28;20025;-73
2022/06/10 05:05:30;;;;;;;15.98;4.35;;;;;;;14.56;78.32;102011.00;5012399;28;20083;-73
2022/06/10 05:07:56;;;;;;;13.30;3.50;;;;;;;14.55;78.52;102002.13;5009678;28;20404;-73
2022/06/10 05:10:22;;;;;;;11.82;3.88;;;;;;;14.60;78.45;102015.22;5030180;28;20047;-73
2022/06/10 05:12:49;;;;;;;11.68;3.70;;;;;;;14.65;78.33;102011.31;5011846;28;20029;-73
2022/06/10 05:15:16;;;;;;;11.20;3.80;;;;;;;14.67;78.79;102013.88;4979597;28;20025;-73
2022/06/10 05:17:42;;;;;;;13.13;3.78;;;;;;;14.66;78.57;101991.59;5030089;28;20112;-73
2022/06/10 05:20:11;;;;;;;22.10;4.85;;;;;;;14.73;77.81;102006.34;5005463;28;20141;-73
2022/06/10 05:22:36;;;;;;;13.48;3.85;;;;;;;14.75;78.03;101996.41;5008819;28;20108;-73
2022/06/10 05:25:02;;;;;;;8.02;3.35;;;;;;;14.66;77.96;101988.94;4997737;28;20112;-73
2022/06/10 05:27:28;;;;;;;17.08;4.20;;;;;;;14.80;77.90;101997.94;5007782;28;20085;-73
2022/06/10 05:29:53;;;;;;;14.43;4.28;;;;;;;14.82;78.22;101996.84;5007902;28;20116;-73
2022/06/10 05:32:21;;;;;;;14.18;3.95;;;;;;;14.86;78.00;102000.22;4995961;28;20042;-73
2022/06/10 05:34:47;;;;;;;10.00;4.22;;;;;;;14.88;78.34;101996.50;4984151;28;20018;-73
2022/06/10 05:37:25;;;;;;;15.55;4.30;;;;;;;14.95;78.22;101999.66;4991401;28;20033;-73
2022/06/10 05:39:52;;;;;;;17.70;4.55;;;;;;;14.98;77.52;101994.09;5008611;28;20022;-73
2022/06/10 05:42:18;;;;;;;20.45;4.70;;;;;;;15.01;77.91;101993.06;5008570;28;20026;-73
2022/06/10 05:44:49;;;;;;;10.55;3.50;;;;;;;15.05;77.73;101994.56;5007502;28;20026;-74
2022/06/10 05:47:21;;;;;;;12.10;3.75;;;;;;;15.07;77.87;101987.28;5004840;28;20434;-73
2022/06/10 05:49:50;;;;;;;12.05;3.83;;;;;;;15.14;77.61;101997.50;5009108;28;20109;-72
2022/06/10 05:52:19;;;;;;;8.48;2.75;;;;;;;15.18;77.91;101992.84;5009184;28;20049;-72
2022/06/10 05:54:46;;;;;;;14.95;3.47;;;;;;;15.16;77.61;101984.88;5008016;28;20051;-73
2022/06/10 05:57:13;;;;;;;7.88;3.20;;;;;;;15.14;77.72;101973.38;5008005;28;20036;-73
2022/06/10 05:59:39;;;;;;;9.35;3.38;;;;;;;15.30;77.53;101999.22;5009070;28;20033;-73
2022/06/10 06:02:08;;;;;;;12.63;3.22;;;;;;;15.31;77.71;101996.44;5008547;28;20026;-73
2022/06/10 06:04:36;;;;;;;8.82;3.10;;;;;;;15.40;77.89;101994.97;5008689;28;20052;-73
2022/06/10 06:07:02;;;;;;;7.70;2.97;;;;;;;15.44;77.49;101992.00;4999972;28;20030;-73
2022/06/10 06:09:27;;;;;;;5.53;2.83;;;;;;;15.50;76.67;102000.59;4992404;28;20510;-73
2022/06/10 06:11:56;;;;;;;11.25;3.28;;;;;;;15.50;76.89;101990.75;5007969;28;20021;-73
2022/06/10 06:14:22;;;;;;;13.52;3.38;;;;;;;15.60;76.68;102002.56;5013549;28;20037;-73
2022/06/10 06:16:52;;;;;;;12.70;3.25;;;;;;;15.59;76.57;102000.88;5013251;28;20105;-73
2022/06/10 06:19:18;;;;;;;11.15;3.10;;;;;;;15.67;76.35;102003.03;5013418;28;20048;-72
2022/06/10 06:21:44;;;;;;;7.30;2.85;;;;;;;15.72;76.41;102011.66;5033256;28;20046;-73
2022/06/10 06:24:10;;;;;;;9.50;3.45;;;;;;;15.73;75.90;102009.84;5012018;28;20034;-72
2022/06/10 06:26:39;;;;;;;14.23;2.97;;;;;;;15.75;75.84;102011.47;5033248;28;20079;-72
2022/06/10 06:29:04;;;;;;;7.60;2.53;;;;;;;15.79;76.15;102014.78;5012553;28;20473;-71
2022/06/10 06:31:30;;;;;;;6.75;2.72;;;;;;;15.80;75.91;102017.41;5033550;28;20036;-72
2022/06/10 06:33:55;;;;;;;9.85;2.85;;;;;;;15.77;75.82;102011.38;5015031;28;20095;-71
2022/06/10 06:36:24;;;;;;;9.88;3.20;;;;;;;15.80;75.52;102011.19;5014686;28;20211;-71
2022/06/10 06:38:50;;;;;;;8.38;3.08;;;;;;;15.79;75.25;102006.75;5031257;28;20536;-72
2022/06/10 06:41:17;;;;;;;8.18;2.90;;;;;;;15.90;75.54;102020.31;5031875;28;20568;-71
2022/06/10 06:43:42;;;;;;;9.75;2.60;;;;;;;15.95;75.00;102023.56;5034422;28;20083;-71
2022/06/10 06:46:13;;;;;;;9.70;3.00;;;;;;;15.93;75.42;102016.56;5033260;28;20037;-71
2022/06/10 06:48:39;;;;;;;10.95;2.70;;;;;;;16.01;75.87;102031.19;5031935;28;20112;-71
2022/06/10 06:51:06;;;;;;;9.65;3.08;;;;;;;16.05;74.87;102032.69;5033512;28;20104;-71
2022/06/10 06:53:33;;;;;;;12.38;2.90;;;;;;;16.07;74.98;102030.78;5032538;28;20028;-72
2022/06/10 06:55:58;;;;;;;14.65;3.10;;;;;;;16.11;74.51;102036.78;5033373;28;20112;-71
2022/06/10 06:58:24;;;;;;;12.23;2.88;;;;;;;16.14;74.90;102033.91;5012518;28;20104;-71
2022/06/10 07:00:49;;;;;;;6.97;2.65;;;;;;;16.17;75.17;102040.88;5015345;28;20064;-71
2022/06/10 07:03:17;;;;;;;11.57;2.75;;;;;;;16.19;74.86;102034.47;5010751;28;20029;-71
2022/06/10 07:05:43;;;;;;;11.20;3.20;;;;;;;16.20;74.51;102038.00;5014254;28;20133;-72
2022/06/10 07:08:09;;;;;;;6.63;2.75;;;;;;;16.24;74.79;102035.03;5014514;28;20120;-71
2022/06/10 07:10:35;;;;;;;8.00;2.70;;;;;;;16.25;74.69;102043.94;5015358;28;20027;-71
2022/06/10 07:13:01;;;;;;;10.02;3.05;;;;;;;16.30;74.31;102039.09;5014123;28;20037;-71
2022/06/10 07:15:27;;;;;;;11.77;3.00;;;;;;;16.34;73.62;102035.25;5011946;28;20033;-71
2022/06/10 07:17:55;;;;;;;11.45;2.80;;;;;;;16.36;73.36;102030.63;5014812;28;20128;-71
2022/06/10 07:20:30;;;;;;;11.10;2.75;;;;;;;16.50;73.45;102038.59;5014757;28;20057;-71
2022/06/10 07:22:56;;;;;;;10.13;3.20;;;;;;;16.59;73.19;102037.09;5010960;28;20029;-71
2022/06/10 07:25:23;;;;;;;11.15;2.97;;;;;;;16.71;73.39;102043.44;5032095;28;20033;-71
2022/06/10 07:27:52;;;;;;;12.18;2.65;;;;;;;16.77;73.05;102053.81;5032215;28;20052;-71
2022/06/10 07:30:21;;;;;;;11.25;3.10;;;;;;;16.77;72.64;102054.66;5031753;28;20050;-72
2022/06/10 07:32:47;;;;;;;9.25;2.10;;;;;;;16.75;72.56;102040.44;5031378;28;20021;-72
2022/06/10 07:35:13;;;;;;;9.48;2.53;;;;;;;16.75;72.59;102050.31;5013805;28;20032;-72
2022/06/10 07:37:39;;;;;;;6.68;2.45;;;;;;;16.70;72.01;102041.72;5030708;28;20044;-71
2022/06/10 07:40:06;;;;;;;4.82;2.22;;;;;;;16.67;71.93;102040.09;5014676;28;20476;-71
2022/06/10 07:42:34;;;;;;;7.53;2.55;;;;;;;16.71;72.06;102054.19;5024419;28;20029;-71
2022/06/10 07:44:59;;;;;;;8.38;2.45;;;;;;;16.71;72.20;102055.06;5012558;28;20026;-71
2022/06/10 07:47:25;;;;;;;5.90;2.03;;;;;;;16.68;72.50;102049.91;5013245;28;20037;-71
2022/06/10 07:49:53;;;;;;;9.27;2.38;;;;;;;16.71;72.56;102043.44;5009853;28;20033;-71
2022/06/10 07:52:21;;;;;;;6.70;3.03;;;;;;;16.57;72.15;102017.53;4997030;28;20034;-71
2022/06/10 07:54:47;;;;;;;10.73;2.42;;;;;;;16.77;71.91;102041.22;4998676;28;20022;-72
2022/06/10 07:57:12;;;;;;;6.55;2.20;;;;;;;16.85;72.00;102034.44;5011199;28;20087;-71
2022/06/10 07:59:42;;;;;;;6.20;2.47;;;;;;;16.93;71.53;102032.06;5010539;28;20041;-71
2022/06/10 08:02:09;;;;;;;9.05;2.03;;;;;;;17.03;71.40;102034.00;5012680;28;20034;-71
2022/06/10 08:04:37;;;;;;;7.20;2.28;;;;;;;17.17;71.43;102030.31;5030603;28;20029;-72
2022/06/10 08:07:06;;;;;;;5.50;2.17;;;;;;;17.32;71.44;102032.84;5013882;28;20033;-71
2022/06/10 08:09:32;;;;;;;6.07;2.30;;;;;;;17.41;70.78;102042.94;5031114;28;20025;-71
2022/06/10 08:12:02;;;;;;;4.72;2.00;;;;;;;17.52;70.83;102034.94;5011810;28;20036;-71
2022/06/10 08:14:28;;;;;;;9.05;2.50;;;;;;;17.61;67.92;102044.19;5030471;28;20402;-72
2022/06/10 08:16:54;;;;;;;7.70;2.50;;;;;;;17.63;67.97;102047.63;4995612;28;20029;-71
2022/06/10 08:19:20;;;;;;;8.70;2.17;;;;;;;17.68;69.15;102045.47;4978428;28;20042;-71
2022/06/10 08:24:32;;;;;;;7.03;2.70;;;;;;;17.76;66.10;102043.03;5030482;28;20511;-71
2022/06/10 08:26:58;;;;;;;6.32;2.08;;;;;;;17.75;66.19;102046.72;5012397;28;20570;-72
2022/06/10 08:29:26;;;;;;;8.50;2.65;;;;;;;17.74;66.81;102049.53;4994473;28;20129;-72
2022/06/10 08:31:52;;;;;;;11.18;2.90;;;;;;;17.76;65.82;102051.13;5011626;28;20025;-71
2022/06/10 08:34:18;;;;;;;8.13;3.13;;;;;;;17.75;65.97;102049.41;5013141;28;20035;-73
2022/06/10 08:36:43;;;;;;;14.70;3.70;;;;;;;17.77;67.04;102052.00;4994777;28;20033;-72
2022/06/10 08:39:09;;;;;;;15.05;3.38;;;;;;;17.74;65.32;102046.84;5030788;28;20080;-71
2022/06/10 08:41:53;;;;;;;12.65;3.75;;;;;;;17.79;66.63;102053.59;5013306;28;20037;-71
2022/06/10 08:44:34;;;;;;;12.90;3.22;;;;;;;17.76;66.49;102023.34;5030089;28;20025;-72
2022/06/10 08:47:08;;;;;;;11.93;3.20;;;;;;;18.03;67.10;102045.56;5031709;28;20099;-72
2022/06/10 08:49:45;;;;;;;13.60;3.22;;;;;;;18.10;65.66;102038.72;5031661;28;20120;-72
2022/06/10 08:52:44;;;;;;;15.60;3.20;;;;;;;18.21;66.05;102037.91;5031546;28;20029;-71
2022/06/10 08:55:38;;;;;;;13.88;4.35;;;;;;;18.46;65.24;102033.31;5013098;28;20029;-72
2022/06/10 08:58:16;;;;;;;11.90;3.20;;;;;;;18.85;64.30;102021.25;5030742;28;20017;-72
2022/06/10 09:00:43;;;;;;;11.82;3.50;;;;;;;19.10;62.15;102019.31;5030125;28;20387;-72
2022/06/10 09:03:21;;;;;;;10.50;3.03;;;;;;;19.46;62.81;102034.34;5031283;28;20167;-72
2022/06/10 09:06:00;;;;;;;11.20;3.20;;;;;;;19.48;62.23;102027.00;5031966;28;20174;-73
2022/06/10 09:08:33;;;;;;;11.98;2.78;;;;;;;19.56;60.98;102020.94;5031610;28;20032;-72
2022/06/10 09:11:20;;;;;;;9.63;2.92;;;;;;;19.79;61.07;102029.88;5031172;28;20481;-73
2022/06/10 09:14:02;;;;;;;10.65;3.05;;;;;;;19.90;61.09;102014.50;5030528;28;20061;-73
2022/06/10 09:16:35;;;;;;;9.48;3.08;;;;;;;20.11;60.34;102033.44;5011207;28;20044;-72
2022/06/10 09:19:19;;;;;;;7.80;3.08;;;;;;;20.09;60.36;102035.41;5031142;28;20108;-73
2022/06/10 09:22:08;;;;;;;9.40;2.75;;;;;;;20.20;59.64;102037.19;5031162;28;20037;-72
2022/06/10 09:24:38;;;;;;;9.90;2.70;;;;;;;19.93;60.03;102034.97;5029775;28;20037;-73
2022/06/10 09:27:23;;;;;;;18.00;5.28;;;;;;;20.01;60.38;102043.31;5030223;28;20061;-72
2022/06/10 09:30:09;;;;;;;9.85;3.13;;;;;;;19.94;61.24;102028.59;4969799;28;20034;-72
2022/06/10 09:32:50;;;;;;;11.15;2.90;;;;;;;20.13;60.60;102041.41;4970479;28;20257;-72
2022/06/10 09:35:39;;;;;;;9.82;3.40;;;;;;;20.17;59.72;102043.72;4973521;28;20060;-73
2022/06/10 09:38:35;;;;;;;13.15;3.28;;;;;;;20.47;60.91;102046.63;4972502;28;20034;-73
2022/06/10 09:41:06;;;;;;;8.18;2.15;;;;;;;20.58;59.85;102038.50;4989121;28;20518;-73
2022/06/10 09:43:43;;;;;;;11.30;3.63;;;;;;;20.63;59.22;102049.78;4972420;28;20058;-73
2022/06/10 09:46:17;;;;;;;12.60;3.00;;;;;;;20.63;58.93;102042.50;4968006;28;20365;-73
2022/06/10 09:48:57;;;;;;;9.82;2.75;;;;;;;20.59;59.16;102051.88;4975516;28;20117;-73
2022/06/10 09:51:29;;;;;;;8.23;2.80;;;;;;;20.46;59.86;102044.94;4979679;28;20055;-73
2022/06/10 09:54:06;;;;;;;10.63;2.88;;;;;;;20.47;59.81;102050.22;4973605;28;20046;-73
2022/06/10 09:56:51;;;;;;;6.43;2.75;;;;;;;20.56;60.28;102045.88;4973933;28;20421;-73
2022/06/10 09:59:44;;;;;;;11.45;3.58;;;;;;;20.71;60.40;102036.44;4974084;28;20298;-74
2022/06/10 10:02:36;;;;;;;9.77;3.17;;;;;;;20.82;59.19;102049.00;5029096;28;20034;-73
2022/06/10 10:05:10;;;;;;;9.88;3.53;;;;;;;20.95;60.17;102041.53;5034730;28;20033;-74
2022/06/10 10:07:46;;;;;;;10.65;3.30;;;;;;;21.18;59.18;102038.63;5016513;28;20075;-73
2022/06/10 10:10:20;;;;;;;13.77;3.95;;;;;;;21.33;59.14;102045.41;5015732;28;20048;-73
2022/06/10 10:12:48;;;;;;;11.70;3.05;;;;;;;21.21;58.21;102052.75;5033794;28;20021;-73
2022/06/10 10:15:20;;;;;;;10.90;3.45;;;;;;;20.99;58.54;102042.97;5034762;28;20021;-73
2022/06/10 10:18:09;;;;;;;9.35;3.25;;;;;;;20.89;60.01;102047.50;5034444;28;20419;-73
2022/06/10 10:21:07;;;;;;;13.75;3.83;;;;;;;20.78;59.28;102052.97;5034275;28;20062;-73
2022/06/10 10:23:38;;;;;;;11.90;3.35;;;;;;;20.76;59.96;102042.28;5032804;28;20067;-73
2022/06/10 10:26:06;;;;;;;9.60;3.28;;;;;;;20.98;60.54;102033.16;5033497;28;20116;-73
2022/06/10 10:28:35;;;;;;;12.63;3.33;;;;;;;21.12;58.71;102041.88;5033561;28;20029;-73
2022/06/10 10:31:17;;;;;;;10.50;3.55;;;;;;;21.19;59.32;102034.94;5034405;28;20025;-73
2022/06/10 10:33:43;;;;;;;11.13;3.38;;;;;;;20.98;58.06;102049.38;5034129;28;20032;-73
2022/06/10 10:36:32;;;;;;;10.27;3.47;;;;;;;21.14;59.13;102034.50;5034008;28;20029;-73
2022/06/10 10:39:38;;;;;;;14.30;4.13;;;;;;;21.34;57.79;102041.69;5021308;28;20049;-73
2022/06/10 10:42:13;;;;;;;18.83;3.88;;;;;;;21.64;58.01;102027.25;4953666;29;20078;-73
2022/06/10 10:44:47;;;;;;;11.68;3.65;;;;;;;21.71;57.08;102016.72;4953109;29;20038;-73
2022/06/10 10:47:12;;;;;;;13.32;4.00;;;;;;;21.90;57.27;102024.00;4983768;28;20041;-72
2022/06/10 10:49:46;;;;;;;11.73;3.80;;;;;;;22.26;58.05;102027.00;5013862;28;20030;-73
2022/06/10 10:52:22;;;;;;;10.88;4.07;;;;;;;22.31;57.27;102027.44;5033553;28;20033;-73
2022/06/10 10:54:52;;;;;;;10.73;3.30;;;;;;;22.12;56.64;102022.84;5034590;28;20024;-73
2022/06/10 10:57:42;;;;;;;9.48;3.58;;;;;;;22.16;57.44;102032.41;5032751;28;20029;-73
2022/06/10 11:00:16;;;;;;;10.35;3.50;;;;;;;22.03;57.35;102029.13;5033263;28;20025;-74
2022/06/10 11:02:53;;;;;;;14.50;3.42;;;;;;;22.05;57.13;102029.84;5032883;28;20108;-73
2022/06/10 11:05:25;;;;;;;11.65;3.28;;;;;;;21.93;57.61;102029.97;5033570;28;20480;-73
2022/06/10 11:08:06;;;;;;;12.93;4.05;;;;;;;21.92;58.27;102022.88;5014840;28;20055;-74
2022/06/10 11:10:37;;;;;;;9.50;3.47;;;;;;;21.96;57.47;102026.13;5033745;28;20731;-73
2022/06/10 11:13:06;;;;;;;11.40;4.22;;;;;;;21.88;57.44;102028.69;5031538;28;20424;-72
2022/06/10 11:15:34;;;;;;;16.10;3.90;;;;;;;21.94;56.93;102022.72;5015160;28;20026;-74
2022/06/10 11:18:01;;;;;;;11.35;3.50;;;;;;;22.03;56.64;102019.16;5033205;28;20400;-74
2022/06/10 11:20:28;;;;;;;9.30;2.90;;;;;;;22.04;57.45;102015.44;5032990;28;20075;-75
2022/06/10 11:23:21;;;;;;;10.85;3.58;;;;;;;22.17;57.18;102023.31;5033070;28;20036;-75
2022/06/10 11:26:11;;;;;;;10.65;3.42;;;;;;;22.25;58.74;102012.59;5025031;28;20092;-75
2022/06/10 11:28:39;;;;;;;13.82;3.83;;;;;;;22.20;57.72;102020.31;5013197;28;20048;-75
2022/06/10 11:31:23;;;;;;;12.27;4.15;;;;;;;22.36;57.85;102020.59;5032806;28;20104;-75
2022/06/10 11:33:52;;;;;;;11.38;3.50;;;;;;;22.50;57.59;102018.41;5031495;28;20072;-75
2022/06/10 11:36:26;;;;;;;12.43;3.90;;;;;;;22.56;56.54;102007.84;5027448;28;20029;-75
2022/06/10 11:39:08;;;;;;;12.52;3.90;;;;;;;22.60;55.37;102011.13;5030533;28;20048;-75
2022/06/10 11:41:34;;;;;;;9.43;2.90;;;;;;;22.67;54.83;102009.50;5026151;28;20029;-75
2022/06/10 11:44:16;;;;;;;10.45;3.00;;;;;;;22.77;55.10;102012.22;5028688;28;20030;-74
2022/06/10 11:46:49;;;;;;;9.90;3.20;;;;;;;22.90;54.06;102008.16;5012803;28;20068;-74
2022/06/10 11:49:27;;;;;;;8.55;2.72;;;;;;;22.84;54.68;102003.31;5032795;28;20104;-74
2022/06/10 11:52:21;;;;;;;11.23;2.75;;;;;;;22.86;54.34;102001.31;5032377;28;20032;-74